sensor_id;sensor_type;location;lat;lon;timestamp;P1;durP1;ratioP1;P2;durP2;ratioP2
14346;SDS011;7257;52.158;9.968;2022-07-29T00:00:01;2.60;;;1.83;;
14346;SDS011;7257;52.158;9.968;2022-07-29T00:00:23;4.00;;;2.17;;
14346;SDS011;7257;52.158;9.968;2022-07-29T00:00:45;4.03;;;2.08;;
14346;SDS011;7257;52.158;9.968;2022-07-29T00:01:06;4.85;;;1.77;;
14346;SDS011;7257;52.158;9.968;2022-07-29T00:01:27;3.38;;;1.63;;
14346;SDS011;7257;52.158;9.968;2022-07-29T00:01:48;3.22;;;1.58;;
14346;SDS011;7257;52.158;9.968;2022-07-29T00:02:12;3.50;;;2.20;;
14346;SDS011;7257;52.158;9.968;2022-07-29T00:02:34;3.88;;;2.40;;
14346;SDS011;7257;52.158;9.968;2022-07-29T00:02:55;3.70;;;2.25;;
14346;SDS011;7257;52.158;9.968;2022-07-29T00:03:16;4.63;;;2.42;;
14346;SDS011;7257;52.158;9.968;2022-07-29T00:03:37;5.03;;;2.50;;
14346;SDS011;7257;52.158;9.968;2022-07-29T00:03:59;4.78;;;2.80;;
14346;SDS011;7257;52.158;9.968;2022-07-29T00:04:21;3.75;;;2.47;;
14346;SDS011;7257;52.158;9.968;2022-07-29T00:04:42;3.33;;;2.42;;
14346;SDS011;7257;52.158;9.968;2022-07-29T00:05:03;3.13;;;2.47;;
14346;SDS011;7257;52.158;9.968;2022-07-29T00:05:25;2.40;;;2.20;;
14346;SDS011;7257;52.158;9.968;2022-07-29T00:05:47;2.33;;;2.00;;
14346;SDS011;7257;52.158;9.968;2022-07-29T00:06:08;3.20;;;1.52;;
14346;SDS011;7257;52.158;9.968;2022-07-29T00:06:29;2.90;;;1.33;;
14346;SDS011;7257;52.158;9.968;2022-07-29T00:06:52;3.35;;;1.38;;
14346;SDS011;7257;52.158;9.968;2022-07-29T00:07:14;2.60;;;1.50;;
14346;SDS011;7257;52.158;9.968;2022-07-29T00:07:35;2.92;;;1.67;;
14346;SDS011;7257;52.158;9.968;2022-07-29T00:07:56;3.58;;;1.67;;
14346;SDS011;7257;52.158;9.968;2022-07-29T00:08:17;3.50;;;1.60;;
14346;SDS011;7257;52.158;9.968;2022-07-29T00:08:38;2.92;;;1.50;;
14346;SDS011;7257;52.158;9.968;2022-07-29T00:09:00;4.13;;;1.88;;
14346;SDS011;7257;52.158;9.968;2022-07-29T00:09:21;6.80;;;2.40;;
14346;SDS011;7257;52.158;9.968;2022-07-29T00:09:42;7.00;;;2.50;;
14346;SDS011;7257;52.158;9.968;2022-07-29T00:10:03;3.10;;;2.33;;
14346;SDS011;7257;52.158;9.968;2022-07-29T00:10:25;2.03;;;1.83;;
14346;SDS011;7257;52.158;9.968;2022-07-29T00:10:46;2.00;;;1.80;;
14346;SDS011;7257;52.158;9.968;2022-07-29T00:11:07;1.87;;;1.57;;
14346;SDS011;7257;52.158;9.968;2022-07-29T00:11:28;2.05;;;1.50;;
14346;SDS011;7257;52.158;9.968;2022-07-29T00:11:49;2.92;;;1.60;;
14346;SDS011;7257;52.158;9.968;2022-07-29T00:12:10;2.85;;;1.60;;
14346;SDS011;7257;52.158;9.968;2022-07-29T00:12:31;2.65;;;1.40;;
14346;SDS011;7257;52.158;9.968;2022-07-29T00:12:52;2.08;;;1.17;;
14346;SDS011;7257;52.158;9.968;2022-07-29T00:13:14;3.10;;;1.52;;
14346;SDS011;7257;52.158;9.968;2022-07-29T00:13:35;4.00;;;2.30;;
14346;SDS011;7257;52.158;9.968;2022-07-29T00:13:56;3.72;;;2.78;;
14346;SDS011;7257;52.158;9.968;2022-07-29T00:14:17;3.13;;;2.80;;
14346;SDS011;7257;52.158;9.968;2022-07-29T00:14:40;3.20;;;2.53;;
14346;SDS011;7257;52.158;9.968;2022-07-29T00:15:02;3.63;;;2.40;;
14346;SDS011;7257;52.158;9.968;2022-07-29T00:15:23;3.53;;;2.17;;
14346;SDS011;7257;52.158;9.968;2022-07-29T00:15:44;3.60;;;2.08;;
14346;SDS011;7257;52.158;9.968;2022-07-29T00:16:06;3.78;;;2.33;;
14346;SDS011;7257;52.158;9.968;2022-07-29T00:16:27;3.78;;;2.08;;
14346;SDS011;7257;52.158;9.968;2022-07-29T00:16:48;2.95;;;2.00;;
14346;SDS011;7257;52.158;9.968;2022-07-29T00:17:09;2.33;;;1.60;;
14346;SDS011;7257;52.158;9.968;2022-07-29T00:17:30;2.42;;;1.60;;
14346;SDS011;7257;52.158;9.968;2022-07-29T00:17:53;2.83;;;1.63;;
14346;SDS011;7257;52.158;9.968;2022-07-29T00:18:14;3.65;;;1.80;;
14346;SDS011;7257;52.158;9.968;2022-07-29T00:18:35;4.57;;;2.30;;
14346;SDS011;7257;52.158;9.968;2022-07-29T00:18:56;4.93;;;2.78;;
14346;SDS011;7257;52.158;9.968;2022-07-29T00:19:17;4.18;;;2.78;;
14346;SDS011;7257;52.158;9.968;2022-07-29T00:19:39;4.03;;;2.60;;
14346;SDS011;7257;52.158;9.968;2022-07-29T00:20:00;4.15;;;2.22;;
14346;SDS011;7257;52.158;9.968;2022-07-29T00:20:21;3.97;;;2.10;;
14346;SDS011;7257;52.158;9.968;2022-07-29T00:20:42;3.95;;;1.85;;
14346;SDS011;7257;52.158;9.968;2022-07-29T00:21:03;3.08;;;1.90;;
14346;SDS011;7257;52.158;9.968;2022-07-29T00:21:25;2.83;;;1.70;;
14346;SDS011;7257;52.158;9.968;2022-07-29T00:21:49;2.38;;;1.40;;
14346;SDS011;7257;52.158;9.968;2022-07-29T00:22:09;2.42;;;1.33;;
14346;SDS011;7257;52.158;9.968;2022-07-29T00:22:31;4.35;;;1.80;;
14346;SDS011;7257;52.158;9.968;2022-07-29T00:22:52;4.43;;;2.20;;
14346;SDS011;7257;52.158;9.968;2022-07-29T00:23:13;4.03;;;2.38;;
14346;SDS011;7257;52.158;9.968;2022-07-29T00:23:34;3.78;;;2.00;;
14346;SDS011;7257;52.158;9.968;2022-07-29T00:23:55;4.50;;;1.98;;
14346;SDS011;7257;52.158;9.968;2022-07-29T00:24:17;5.10;;;1.90;;
14346;SDS011;7257;52.158;9.968;2022-07-29T00:24:38;4.97;;;2.17;;
14346;SDS011;7257;52.158;9.968;2022-07-29T00:24:59;4.23;;;2.40;;
14346;SDS011;7257;52.158;9.968;2022-07-29T00:25:20;5.82;;;2.67;;
14346;SDS011;7257;52.158;9.968;2022-07-29T00:25:40;5.22;;;2.60;;
14346;SDS011;7257;52.158;9.968;2022-07-29T00:26:02;5.00;;;2.50;;
14346;SDS011;7257;52.158;9.968;2022-07-29T00:26:23;2.95;;;2.22;;
14346;SDS011;7257;52.158;9.968;2022-07-29T00:26:45;2.83;;;2.03;;
14346;SDS011;7257;52.158;9.968;2022-07-29T00:27:06;2.93;;;1.67;;
14346;SDS011;7257;52.158;9.968;2022-07-29T00:27:26;2.88;;;1.67;;
14346;SDS011;7257;52.158;9.968;2022-07-29T00:27:48;2.95;;;1.60;;
14346;SDS011;7257;52.158;9.968;2022-07-29T00:28:09;3.80;;;1.65;;
14346;SDS011;7257;52.158;9.968;2022-07-29T00:28:30;4.70;;;1.58;;
14346;SDS011;7257;52.158;9.968;2022-07-29T00:28:51;4.95;;;1.50;;
14346;SDS011;7257;52.158;9.968;2022-07-29T00:29:12;2.72;;;1.40;;
14346;SDS011;7257;52.158;9.968;2022-07-29T00:29:34;2.40;;;1.50;;
14346;SDS011;7257;52.158;9.968;2022-07-29T00:29:56;2.30;;;1.60;;
14346;SDS011;7257;52.158;9.968;2022-07-29T00:30:17;2.70;;;1.67;;
14346;SDS011;7257;52.158;9.968;2022-07-29T00:30:38;3.20;;;1.83;;
14346;SDS011;7257;52.158;9.968;2022-07-29T00:31:02;4.22;;;1.83;;
14346;SDS011;7257;52.158;9.968;2022-07-29T00:31:23;4.60;;;1.80;;
14346;SDS011;7257;52.158;9.968;2022-07-29T00:31:44;3.95;;;1.75;;
14346;SDS011;7257;52.158;9.968;2022-07-29T00:32:05;3.95;;;1.88;;
14346;SDS011;7257;52.158;9.968;2022-07-29T00:32:28;4.18;;;2.03;;
14346;SDS011;7257;52.158;9.968;2022-07-29T00:32:49;4.05;;;2.15;;
14346;SDS011;7257;52.158;9.968;2022-07-29T00:33:09;3.85;;;2.10;;
14346;SDS011;7257;52.158;9.968;2022-07-29T00:33:30;2.70;;;1.60;;
14346;SDS011;7257;52.158;9.968;2022-07-29T00:33:52;2.75;;;1.50;;
14346;SDS011;7257;52.158;9.968;2022-07-29T00:34:13;2.60;;;1.73;;
14346;SDS011;7257;52.158;9.968;2022-07-29T00:34:49;2.92;;;2.05;;
14346;SDS011;7257;52.158;9.968;2022-07-29T00:35:28;2.88;;;1.70;;
14346;SDS011;7257;52.158;9.968;2022-07-29T00:36:04;2.95;;;1.77;;
14346;SDS011;7257;52.158;9.968;2022-07-29T00:36:25;3.25;;;2.13;;
14346;SDS011;7257;52.158;9.968;2022-07-29T00:36:46;3.75;;;2.35;;
14346;SDS011;7257;52.158;9.968;2022-07-29T00:37:07;3.58;;;2.47;;
14346;SDS011;7257;52.158;9.968;2022-07-29T00:37:28;3.20;;;2.35;;
14346;SDS011;7257;52.158;9.968;2022-07-29T00:37:49;2.92;;;2.30;;
14346;SDS011;7257;52.158;9.968;2022-07-29T00:38:11;3.00;;;2.22;;
14346;SDS011;7257;52.158;9.968;2022-07-29T00:38:33;3.05;;;2.03;;
14346;SDS011;7257;52.158;9.968;2022-07-29T00:38:55;5.00;;;2.00;;
14346;SDS011;7257;52.158;9.968;2022-07-29T00:39:16;4.72;;;2.22;;
14346;SDS011;7257;52.158;9.968;2022-07-29T00:39:36;4.70;;;2.47;;
14346;SDS011;7257;52.158;9.968;2022-07-29T00:39:57;3.60;;;2.95;;
14346;SDS011;7257;52.158;9.968;2022-07-29T00:40:18;3.85;;;2.97;;
14346;SDS011;7257;52.158;9.968;2022-07-29T00:40:40;4.03;;;2.80;;
14346;SDS011;7257;52.158;9.968;2022-07-29T00:41:02;5.05;;;2.15;;
14346;SDS011;7257;52.158;9.968;2022-07-29T00:41:23;4.82;;;1.75;;
14346;SDS011;7257;52.158;9.968;2022-07-29T00:41:44;4.70;;;1.48;;
14346;SDS011;7257;52.158;9.968;2022-07-29T00:42:06;2.70;;;1.50;;
14346;SDS011;7257;52.158;9.968;2022-07-29T00:42:27;3.72;;;1.90;;
14346;SDS011;7257;52.158;9.968;2022-07-29T00:42:49;3.50;;;2.13;;
14346;SDS011;7257;52.158;9.968;2022-07-29T00:43:11;3.70;;;1.70;;
14346;SDS011;7257;52.158;9.968;2022-07-29T00:43:34;3.83;;;1.63;;
14346;SDS011;7257;52.158;9.968;2022-07-29T00:43:55;4.00;;;2.00;;
14346;SDS011;7257;52.158;9.968;2022-07-29T00:44:16;3.20;;;2.50;;
14346;SDS011;7257;52.158;9.968;2022-07-29T00:44:37;4.13;;;2.93;;
14346;SDS011;7257;52.158;9.968;2022-07-29T00:45:01;6.55;;;2.75;;
14346;SDS011;7257;52.158;9.968;2022-07-29T00:45:22;6.68;;;2.25;;
14346;SDS011;7257;52.158;9.968;2022-07-29T00:45:43;4.00;;;2.15;;
14346;SDS011;7257;52.158;9.968;2022-07-29T00:46:05;5.20;;;2.20;;
14346;SDS011;7257;52.158;9.968;2022-07-29T00:46:26;3.80;;;2.03;;
14346;SDS011;7257;52.158;9.968;2022-07-29T00:46:47;3.80;;;1.85;;
14346;SDS011;7257;52.158;9.968;2022-07-29T00:47:11;3.50;;;1.60;;
14346;SDS011;7257;52.158;9.968;2022-07-29T00:47:32;3.35;;;1.60;;
14346;SDS011;7257;52.158;9.968;2022-07-29T00:47:54;3.03;;;1.90;;
14346;SDS011;7257;52.158;9.968;2022-07-29T00:48:15;2.20;;;1.77;;
14346;SDS011;7257;52.158;9.968;2022-07-29T00:48:35;2.90;;;1.77;;
14346;SDS011;7257;52.158;9.968;2022-07-29T00:48:58;2.83;;;1.77;;
14346;SDS011;7257;52.158;9.968;2022-07-29T00:49:19;5.55;;;2.28;;
14346;SDS011;7257;52.158;9.968;2022-07-29T00:49:40;5.47;;;2.55;;
14346;SDS011;7257;52.158;9.968;2022-07-29T00:50:01;5.50;;;2.47;;
14346;SDS011;7257;52.158;9.968;2022-07-29T00:50:24;3.25;;;2.28;;
14346;SDS011;7257;52.158;9.968;2022-07-29T00:50:47;3.25;;;2.40;;
14346;SDS011;7257;52.158;9.968;2022-07-29T00:51:10;3.42;;;2.38;;
14346;SDS011;7257;52.158;9.968;2022-07-29T00:51:31;5.63;;;2.40;;
14346;SDS011;7257;52.158;9.968;2022-07-29T00:51:52;6.45;;;2.38;;
14346;SDS011;7257;52.158;9.968;2022-07-29T00:52:14;8.10;;;2.33;;
14346;SDS011;7257;52.158;9.968;2022-07-29T00:52:36;6.18;;;2.63;;
14346;SDS011;7257;52.158;9.968;2022-07-29T00:52:58;4.40;;;2.50;;
14346;SDS011;7257;52.158;9.968;2022-07-29T00:53:20;2.95;;;2.05;;
14346;SDS011;7257;52.158;9.968;2022-07-29T00:53:42;2.92;;;1.73;;
14346;SDS011;7257;52.158;9.968;2022-07-29T00:54:04;3.38;;;2.10;;
14346;SDS011;7257;52.158;9.968;2022-07-29T00:54:25;3.30;;;2.08;;
14346;SDS011;7257;52.158;9.968;2022-07-29T00:54:46;2.63;;;1.90;;
14346;SDS011;7257;52.158;9.968;2022-07-29T00:55:08;2.50;;;1.52;;
14346;SDS011;7257;52.158;9.968;2022-07-29T00:55:32;3.28;;;1.75;;
14346;SDS011;7257;52.158;9.968;2022-07-29T00:55:53;3.20;;;1.80;;
14346;SDS011;7257;52.158;9.968;2022-07-29T00:56:14;3.13;;;2.00;;
14346;SDS011;7257;52.158;9.968;2022-07-29T00:56:35;2.53;;;2.30;;
14346;SDS011;7257;52.158;9.968;2022-07-29T00:56:57;2.97;;;2.65;;
14346;SDS011;7257;52.158;9.968;2022-07-29T00:57:19;2.65;;;2.45;;
14346;SDS011;7257;52.158;9.968;2022-07-29T00:57:41;3.05;;;2.05;;
14346;SDS011;7257;52.158;9.968;2022-07-29T00:58:03;3.00;;;1.77;;
14346;SDS011;7257;52.158;9.968;2022-07-29T00:58:26;3.30;;;1.90;;
14346;SDS011;7257;52.158;9.968;2022-07-29T00:58:47;3.13;;;1.85;;
14346;SDS011;7257;52.158;9.968;2022-07-29T00:59:10;4.80;;;2.10;;
14346;SDS011;7257;52.158;9.968;2022-07-29T00:59:31;4.18;;;1.95;;
14346;SDS011;7257;52.158;9.968;2022-07-29T00:59:52;4.00;;;1.83;;
14346;SDS011;7257;52.158;9.968;2022-07-29T01:00:17;3.17;;;1.75;;
14346;SDS011;7257;52.158;9.968;2022-07-29T01:00:39;3.30;;;1.85;;
14346;SDS011;7257;52.158;9.968;2022-07-29T01:01:00;2.97;;;1.60;;
14346;SDS011;7257;52.158;9.968;2022-07-29T01:01:22;2.20;;;1.52;;
14346;SDS011;7257;52.158;9.968;2022-07-29T01:01:43;3.38;;;1.80;;
14346;SDS011;7257;52.158;9.968;2022-07-29T01:02:04;2.90;;;1.70;;
14346;SDS011;7257;52.158;9.968;2022-07-29T01:02:25;3.58;;;1.70;;
14346;SDS011;7257;52.158;9.968;2022-07-29T01:02:47;3.00;;;1.80;;
14346;SDS011;7257;52.158;9.968;2022-07-29T01:03:09;4.50;;;2.40;;
14346;SDS011;7257;52.158;9.968;2022-07-29T01:03:30;3.70;;;2.30;;
14346;SDS011;7257;52.158;9.968;2022-07-29T01:03:50;3.80;;;2.33;;
14346;SDS011;7257;52.158;9.968;2022-07-29T01:04:12;3.28;;;2.08;;
14346;SDS011;7257;52.158;9.968;2022-07-29T01:04:33;3.67;;;2.17;;
14346;SDS011;7257;52.158;9.968;2022-07-29T01:04:55;3.60;;;2.30;;
14346;SDS011;7257;52.158;9.968;2022-07-29T01:05:17;3.10;;;2.33;;
14346;SDS011;7257;52.158;9.968;2022-07-29T01:05:39;2.30;;;1.90;;
14346;SDS011;7257;52.158;9.968;2022-07-29T01:06:03;3.40;;;1.70;;
14346;SDS011;7257;52.158;9.968;2022-07-29T01:06:25;4.40;;;1.70;;
14346;SDS011;7257;52.158;9.968;2022-07-29T01:06:46;4.55;;;2.03;;
14346;SDS011;7257;52.158;9.968;2022-07-29T01:07:08;3.58;;;2.20;;
14346;SDS011;7257;52.158;9.968;2022-07-29T01:07:30;3.10;;;2.42;;
14346;SDS011;7257;52.158;9.968;2022-07-29T01:07:53;3.75;;;2.22;;
14346;SDS011;7257;52.158;9.968;2022-07-29T01:08:17;3.67;;;2.30;;
14346;SDS011;7257;52.158;9.968;2022-07-29T01:08:40;4.18;;;2.00;;
14346;SDS011;7257;52.158;9.968;2022-07-29T01:09:01;3.20;;;1.73;;
14346;SDS011;7257;52.158;9.968;2022-07-29T01:09:23;3.40;;;1.63;;
14346;SDS011;7257;52.158;9.968;2022-07-29T01:09:44;2.47;;;1.80;;
14346;SDS011;7257;52.158;9.968;2022-07-29T01:10:08;2.75;;;2.08;;
14346;SDS011;7257;52.158;9.968;2022-07-29T01:10:31;3.50;;;2.55;;
14346;SDS011;7257;52.158;9.968;2022-07-29T01:10:53;5.50;;;2.42;;
14346;SDS011;7257;52.158;9.968;2022-07-29T01:11:16;5.30;;;2.13;;
14346;SDS011;7257;52.158;9.968;2022-07-29T01:11:38;5.13;;;2.10;;
14346;SDS011;7257;52.158;9.968;2022-07-29T01:11:59;2.95;;;2.00;;
14346;SDS011;7257;52.158;9.968;2022-07-29T01:12:21;2.97;;;2.13;;
14346;SDS011;7257;52.158;9.968;2022-07-29T01:12:45;3.33;;;1.90;;
14346;SDS011;7257;52.158;9.968;2022-07-29T01:13:09;2.90;;;1.80;;
14346;SDS011;7257;52.158;9.968;2022-07-29T01:13:30;2.05;;;1.70;;
14346;SDS011;7257;52.158;9.968;2022-07-29T01:13:53;2.72;;;1.70;;
14346;SDS011;7257;52.158;9.968;2022-07-29T01:14:14;4.72;;;2.30;;
14346;SDS011;7257;52.158;9.968;2022-07-29T01:14:36;4.75;;;2.50;;
14346;SDS011;7257;52.158;9.968;2022-07-29T01:14:58;4.65;;;3.33;;
14346;SDS011;7257;52.158;9.968;2022-07-29T01:15:23;3.22;;;2.92;;
14346;SDS011;7257;52.158;9.968;2022-07-29T01:15:45;5.32;;;2.58;;
14346;SDS011;7257;52.158;9.968;2022-07-29T01:16:10;5.38;;;2.30;;
14346;SDS011;7257;52.158;9.968;2022-07-29T01:16:42;2.75;;;1.88;;
14346;SDS011;7257;52.158;9.968;2022-07-29T01:17:06;2.55;;;1.83;;
14346;SDS011;7257;52.158;9.968;2022-07-29T01:17:32;3.20;;;2.03;;
14346;SDS011;7257;52.158;9.968;2022-07-29T01:17:58;3.17;;;1.98;;
14346;SDS011;7257;52.158;9.968;2022-07-29T01:18:28;2.00;;;1.50;;
14346;SDS011;7257;52.158;9.968;2022-07-29T01:18:53;4.10;;;1.80;;
14346;SDS011;7257;52.158;9.968;2022-07-29T01:19:39;4.38;;;2.15;;
14346;SDS011;7257;52.158;9.968;2022-07-29T01:20:10;2.50;;;2.00;;
14346;SDS011;7257;52.158;9.968;2022-07-29T01:20:41;2.80;;;2.00;;
14346;SDS011;7257;52.158;9.968;2022-07-29T01:21:19;2.15;;;1.80;;
14346;SDS011;7257;52.158;9.968;2022-07-29T01:21:50;2.28;;;1.45;;
14346;SDS011;7257;52.158;9.968;2022-07-29T01:22:18;6.50;;;1.80;;
14346;SDS011;7257;52.158;9.968;2022-07-29T01:23:59;2.50;;;1.80;;
14346;SDS011;7257;52.158;9.968;2022-07-29T01:24:47;4.60;;;1.83;;
14346;SDS011;7257;52.158;9.968;2022-07-29T01:25:42;5.30;;;1.77;;
14346;SDS011;7257;52.158;9.968;2022-07-29T01:26:54;2.42;;;2.13;;
14346;SDS011;7257;52.158;9.968;2022-07-29T01:27:25;5.03;;;2.15;;
14346;SDS011;7257;52.158;9.968;2022-07-29T01:28:08;3.53;;;1.83;;
14346;SDS011;7257;52.158;9.968;2022-07-29T01:28:49;7.97;;;2.10;;
14346;SDS011;7257;52.158;9.968;2022-07-29T01:29:18;8.38;;;2.20;;
14346;SDS011;7257;52.158;9.968;2022-07-29T01:29:44;4.32;;;1.85;;
14346;SDS011;7257;52.158;9.968;2022-07-29T01:30:09;2.97;;;1.90;;
14346;SDS011;7257;52.158;9.968;2022-07-29T01:30:30;3.10;;;2.20;;
14346;SDS011;7257;52.158;9.968;2022-07-29T01:30:55;2.50;;;2.10;;
14346;SDS011;7257;52.158;9.968;2022-07-29T01:31:18;2.38;;;1.90;;
14346;SDS011;7257;52.158;9.968;2022-07-29T01:31:43;3.03;;;2.13;;
14346;SDS011;7257;52.158;9.968;2022-07-29T01:32:10;3.45;;;2.10;;
14346;SDS011;7257;52.158;9.968;2022-07-29T01:32:34;3.25;;;1.92;;
14346;SDS011;7257;52.158;9.968;2022-07-29T01:32:59;2.40;;;2.20;;
14346;SDS011;7257;52.158;9.968;2022-07-29T01:33:22;3.85;;;2.47;;
14346;SDS011;7257;52.158;9.968;2022-07-29T01:34:04;3.92;;;2.33;;
14346;SDS011;7257;52.158;9.968;2022-07-29T01:34:30;2.75;;;2.00;;
14346;SDS011;7257;52.158;9.968;2022-07-29T01:34:58;4.25;;;2.80;;
14346;SDS011;7257;52.158;9.968;2022-07-29T01:35:24;4.40;;;2.72;;
14346;SDS011;7257;52.158;9.968;2022-07-29T01:35:46;3.80;;;2.10;;
14346;SDS011;7257;52.158;9.968;2022-07-29T01:36:10;2.40;;;1.90;;
14346;SDS011;7257;52.158;9.968;2022-07-29T01:36:35;2.03;;;1.73;;
14346;SDS011;7257;52.158;9.968;2022-07-29T01:37:08;2.00;;;1.60;;
14346;SDS011;7257;52.158;9.968;2022-07-29T01:37:36;2.70;;;1.80;;
14346;SDS011;7257;52.158;9.968;2022-07-29T01:38:05;2.40;;;1.70;;
14346;SDS011;7257;52.158;9.968;2022-07-29T01:38:29;2.80;;;2.08;;
14346;SDS011;7257;52.158;9.968;2022-07-29T01:38:52;3.00;;;2.28;;
14346;SDS011;7257;52.158;9.968;2022-07-29T01:39:19;2.30;;;2.10;;
14346;SDS011;7257;52.158;9.968;2022-07-29T01:39:43;2.05;;;1.63;;
14346;SDS011;7257;52.158;9.968;2022-07-29T01:40:08;2.30;;;1.75;;
14346;SDS011;7257;52.158;9.968;2022-07-29T01:40:42;3.00;;;1.90;;
14346;SDS011;7257;52.158;9.968;2022-07-29T01:41:08;2.38;;;1.52;;
14346;SDS011;7257;52.158;9.968;2022-07-29T01:41:32;2.45;;;1.85;;
14346;SDS011;7257;52.158;9.968;2022-07-29T01:41:56;2.50;;;1.90;;
14346;SDS011;7257;52.158;9.968;2022-07-29T01:42:25;3.00;;;1.70;;
14346;SDS011;7257;52.158;9.968;2022-07-29T01:42:50;2.60;;;1.70;;
14346;SDS011;7257;52.158;9.968;2022-07-29T01:43:16;2.10;;;1.90;;
14346;SDS011;7257;52.158;9.968;2022-07-29T01:43:42;2.03;;;1.83;;
14346;SDS011;7257;52.158;9.968;2022-07-29T01:44:12;2.22;;;1.42;;
14346;SDS011;7257;52.158;9.968;2022-07-29T01:44:37;2.75;;;1.70;;
14346;SDS011;7257;52.158;9.968;2022-07-29T01:45:06;2.50;;;1.92;;
14346;SDS011;7257;52.158;9.968;2022-07-29T01:45:34;2.58;;;1.80;;
14346;SDS011;7257;52.158;9.968;2022-07-29T01:46:01;3.47;;;1.80;;
14346;SDS011;7257;52.158;9.968;2022-07-29T01:46:27;3.10;;;1.50;;
14346;SDS011;7257;52.158;9.968;2022-07-29T01:46:52;1.42;;;1.30;;
14346;SDS011;7257;52.158;9.968;2022-07-29T01:47:19;2.35;;;1.50;;
14346;SDS011;7257;52.158;9.968;2022-07-29T01:47:44;2.50;;;1.75;;
14346;SDS011;7257;52.158;9.968;2022-07-29T01:48:13;2.30;;;1.60;;
14346;SDS011;7257;52.158;9.968;2022-07-29T01:48:37;2.38;;;1.60;;
14346;SDS011;7257;52.158;9.968;2022-07-29T01:49:06;4.60;;;1.80;;
14346;SDS011;7257;52.158;9.968;2022-07-29T01:49:31;5.20;;;1.60;;
14346;SDS011;7257;52.158;9.968;2022-07-29T01:49:59;2.83;;;1.60;;
14346;SDS011;7257;52.158;9.968;2022-07-29T01:50:28;3.42;;;1.95;;
14346;SDS011;7257;52.158;9.968;2022-07-29T01:50:56;2.88;;;1.80;;
14346;SDS011;7257;52.158;9.968;2022-07-29T01:51:28;2.30;;;1.60;;
14346;SDS011;7257;52.158;9.968;2022-07-29T01:51:52;2.17;;;1.80;;
14346;SDS011;7257;52.158;9.968;2022-07-29T01:52:23;4.57;;;1.70;;
14346;SDS011;7257;52.158;9.968;2022-07-29T01:52:49;6.07;;;1.70;;
14346;SDS011;7257;52.158;9.968;2022-07-29T01:53:14;5.00;;;1.90;;
14346;SDS011;7257;52.158;9.968;2022-07-29T01:53:42;3.70;;;1.77;;
14346;SDS011;7257;52.158;9.968;2022-07-29T01:54:10;3.40;;;1.70;;
14346;SDS011;7257;52.158;9.968;2022-07-29T01:54:37;2.70;;;1.80;;
14346;SDS011;7257;52.158;9.968;2022-07-29T01:55:04;4.25;;;1.83;;
14346;SDS011;7257;52.158;9.968;2022-07-29T01:55:31;4.50;;;1.98;;
14346;SDS011;7257;52.158;9.968;2022-07-29T01:55:56;2.47;;;1.80;;
14346;SDS011;7257;52.158;9.968;2022-07-29T01:56:20;2.20;;;1.98;;
14346;SDS011;7257;52.158;9.968;2022-07-29T01:56:43;2.20;;;1.90;;
14346;SDS011;7257;52.158;9.968;2022-07-29T01:57:06;2.17;;;1.70;;
14346;SDS011;7257;52.158;9.968;2022-07-29T01:57:30;2.10;;;1.50;;
14346;SDS011;7257;52.158;9.968;2022-07-29T01:57:53;2.00;;;1.52;;
14346;SDS011;7257;52.158;9.968;2022-07-29T01:58:16;2.10;;;1.90;;
14346;SDS011;7257;52.158;9.968;2022-07-29T01:58:40;2.95;;;2.30;;
14346;SDS011;7257;52.158;9.968;2022-07-29T01:59:04;2.95;;;1.92;;
14346;SDS011;7257;52.158;9.968;2022-07-29T01:59:28;2.67;;;1.48;;
14346;SDS011;7257;52.158;9.968;2022-07-29T01:59:50;4.90;;;1.60;;
14346;SDS011;7257;52.158;9.968;2022-07-29T02:00:14;5.30;;;1.80;;
14346;SDS011;7257;52.158;9.968;2022-07-29T02:00:36;5.30;;;1.80;;
14346;SDS011;7257;52.158;9.968;2022-07-29T02:00:59;2.13;;;1.70;;
14346;SDS011;7257;52.158;9.968;2022-07-29T02:01:21;2.53;;;1.70;;
14346;SDS011;7257;52.158;9.968;2022-07-29T02:01:46;3.30;;;1.80;;
14346;SDS011;7257;52.158;9.968;2022-07-29T02:02:08;3.50;;;1.85;;
14346;SDS011;7257;52.158;9.968;2022-07-29T02:02:31;3.58;;;1.88;;
14346;SDS011;7257;52.158;9.968;2022-07-29T02:02:54;3.63;;;1.98;;
14346;SDS011;7257;52.158;9.968;2022-07-29T02:03:17;3.60;;;2.20;;
14346;SDS011;7257;52.158;9.968;2022-07-29T02:03:39;2.85;;;2.00;;
14346;SDS011;7257;52.158;9.968;2022-07-29T02:04:05;2.60;;;1.80;;
14346;SDS011;7257;52.158;9.968;2022-07-29T02:04:28;2.85;;;2.20;;
14346;SDS011;7257;52.158;9.968;2022-07-29T02:04:50;2.60;;;2.00;;
14346;SDS011;7257;52.158;9.968;2022-07-29T02:05:14;2.70;;;2.03;;
14346;SDS011;7257;52.158;9.968;2022-07-29T02:05:38;3.00;;;1.95;;
14346;SDS011;7257;52.158;9.968;2022-07-29T02:06:02;2.60;;;1.70;;
14346;SDS011;7257;52.158;9.968;2022-07-29T02:06:26;2.28;;;1.80;;
14346;SDS011;7257;52.158;9.968;2022-07-29T02:06:52;2.40;;;1.90;;
14346;SDS011;7257;52.158;9.968;2022-07-29T02:07:15;2.30;;;1.90;;
14346;SDS011;7257;52.158;9.968;2022-07-29T02:07:39;2.90;;;2.10;;
14346;SDS011;7257;52.158;9.968;2022-07-29T02:08:02;3.78;;;2.00;;
14346;SDS011;7257;52.158;9.968;2022-07-29T02:08:26;3.47;;;1.80;;
14346;SDS011;7257;52.158;9.968;2022-07-29T02:08:48;3.50;;;1.90;;
14346;SDS011;7257;52.158;9.968;2022-07-29T02:09:10;2.90;;;1.98;;
14346;SDS011;7257;52.158;9.968;2022-07-29T02:09:35;2.45;;;1.88;;
14346;SDS011;7257;52.158;9.968;2022-07-29T02:09:58;2.92;;;1.50;;
14346;SDS011;7257;52.158;9.968;2022-07-29T02:10:23;3.45;;;1.60;;
14346;SDS011;7257;52.158;9.968;2022-07-29T02:10:47;5.10;;;1.90;;
14346;SDS011;7257;52.158;9.968;2022-07-29T02:11:10;5.80;;;2.00;;
14346;SDS011;7257;52.158;9.968;2022-07-29T02:11:31;5.43;;;1.77;;
14346;SDS011;7257;52.158;9.968;2022-07-29T02:11:54;2.70;;;1.70;;
14346;SDS011;7257;52.158;9.968;2022-07-29T02:12:17;3.25;;;1.80;;
14346;SDS011;7257;52.158;9.968;2022-07-29T02:12:40;3.28;;;1.83;;
14346;SDS011;7257;52.158;9.968;2022-07-29T02:13:03;2.88;;;2.10;;
14346;SDS011;7257;52.158;9.968;2022-07-29T02:13:25;2.30;;;2.00;;
14346;SDS011;7257;52.158;9.968;2022-07-29T02:13:48;3.15;;;1.85;;
14346;SDS011;7257;52.158;9.968;2022-07-29T02:14:10;2.78;;;1.58;;
14346;SDS011;7257;52.158;9.968;2022-07-29T02:14:37;2.92;;;1.50;;
14346;SDS011;7257;52.158;9.968;2022-07-29T02:15:00;2.20;;;1.65;;
14346;SDS011;7257;52.158;9.968;2022-07-29T02:15:27;2.60;;;1.70;;
14346;SDS011;7257;52.158;9.968;2022-07-29T02:15:50;2.65;;;1.65;;
14346;SDS011;7257;52.158;9.968;2022-07-29T02:16:13;2.30;;;1.80;;
14346;SDS011;7257;52.158;9.968;2022-07-29T02:16:36;3.08;;;2.05;;
14346;SDS011;7257;52.158;9.968;2022-07-29T02:17:00;5.20;;;2.13;;
14346;SDS011;7257;52.158;9.968;2022-07-29T02:17:23;4.80;;;1.80;;
14346;SDS011;7257;52.158;9.968;2022-07-29T02:17:48;2.25;;;1.88;;
14346;SDS011;7257;52.158;9.968;2022-07-29T02:18:14;3.03;;;2.10;;
14346;SDS011;7257;52.158;9.968;2022-07-29T02:18:39;3.00;;;1.75;;
14346;SDS011;7257;52.158;9.968;2022-07-29T02:19:02;3.20;;;1.60;;
14346;SDS011;7257;52.158;9.968;2022-07-29T02:19:24;4.03;;;1.60;;
14346;SDS011;7257;52.158;9.968;2022-07-29T02:19:47;3.97;;;1.60;;
14346;SDS011;7257;52.158;9.968;2022-07-29T02:20:10;4.20;;;1.70;;
14346;SDS011;7257;52.158;9.968;2022-07-29T02:20:32;4.15;;;1.70;;
14346;SDS011;7257;52.158;9.968;2022-07-29T02:20:54;3.83;;;1.92;;
14346;SDS011;7257;52.158;9.968;2022-07-29T02:21:16;3.70;;;2.10;;
14346;SDS011;7257;52.158;9.968;2022-07-29T02:21:43;1.98;;;1.50;;
14346;SDS011;7257;52.158;9.968;2022-07-29T02:22:06;2.40;;;1.63;;
14346;SDS011;7257;52.158;9.968;2022-07-29T02:22:29;2.60;;;1.70;;
14346;SDS011;7257;52.158;9.968;2022-07-29T02:22:54;2.63;;;1.90;;
14346;SDS011;7257;52.158;9.968;2022-07-29T02:23:19;2.63;;;2.00;;
14346;SDS011;7257;52.158;9.968;2022-07-29T02:23:41;2.47;;;1.70;;
14346;SDS011;7257;52.158;9.968;2022-07-29T02:24:04;2.30;;;1.70;;
14346;SDS011;7257;52.158;9.968;2022-07-29T02:24:27;2.42;;;1.73;;
14346;SDS011;7257;52.158;9.968;2022-07-29T02:24:49;2.75;;;1.73;;
14346;SDS011;7257;52.158;9.968;2022-07-29T02:25:11;2.85;;;1.92;;
14346;SDS011;7257;52.158;9.968;2022-07-29T02:25:33;4.13;;;2.13;;
14346;SDS011;7257;52.158;9.968;2022-07-29T02:25:56;4.07;;;2.03;;